sensor_id;sensor_type;location;lat;lon;timestamp;P1;durP1;ratioP1;P2;durP2;ratioP2
31652;SDS011;18261;53.648;9.910;2023-05-10T00:01:58;8.70;;;3.90;;
31652;SDS011;18261;53.648;9.910;2023-05-10T00:04:24;8.35;;;4.28;;
31652;SDS011;18261;53.648;9.910;2023-05-10T00:06:52;8.95;;;4.32;;
31652;SDS011;18261;53.648;9.910;2023-05-10T00:09:18;9.93;;;4.00;;
31652;SDS011;18261;53.648;9.910;2023-05-10T00:11:44;7.05;;;3.75;;
31652;SDS011;18261;53.648;9.910;2023-05-10T00:14:10;8.20;;;3.92;;
31652;SDS011;18261;53.648;9.910;2023-05-10T00:16:36;9.43;;;3.90;;
31652;SDS011;18261;53.648;9.910;2023-05-10T00:19:02;7.15;;;3.47;;
31652;SDS011;18261;53.648;9.910;2023-05-10T00:21:28;8.68;;;4.10;;
31652;SDS011;18261;53.648;9.910;2023-05-10T00:23:54;10.65;;;4.10;;
31652;SDS011;18261;53.648;9.910;2023-05-10T00:26:20;9.93;;;3.90;;
31652;SDS011;18261;53.648;9.910;2023-05-10T00:28:46;17.60;;;4.20;;
31652;SDS011;18261;53.648;9.910;2023-05-10T00:31:12;11.95;;;4.28;;
31652;SDS011;18261;53.648;9.910;2023-05-10T00:33:39;9.02;;;3.95;;
31652;SDS011;18261;53.648;9.910;2023-05-10T00:36:05;7.70;;;3.92;;
31652;SDS011;18261;53.648;9.910;2023-05-10T00:38:32;11.95;;;4.20;;
31652;SDS011;18261;53.648;9.910;2023-05-10T00:40:58;10.02;;;4.43;;
31652;SDS011;18261;53.648;9.910;2023-05-10T00:43:24;12.05;;;4.53;;
31652;SDS011;18261;53.648;9.910;2023-05-10T00:45:50;8.80;;;4.25;;
31652;SDS011;18261;53.648;9.910;2023-05-10T00:48:16;8.90;;;3.83;;
31652;SDS011;18261;53.648;9.910;2023-05-10T00:50:42;7.88;;;3.80;;
31652;SDS011;18261;53.648;9.910;2023-05-10T00:53:09;12.02;;;4.90;;
31652;SDS011;18261;53.648;9.910;2023-05-10T00:55:35;13.60;;;4.65;;
31652;SDS011;18261;53.648;9.910;2023-05-10T00:58:02;11.85;;;4.15;;
31652;SDS011;18261;53.648;9.910;2023-05-10T01:00:28;9.35;;;4.40;;
31652;SDS011;18261;53.648;9.910;2023-05-10T01:02:54;14.25;;;4.72;;
31652;SDS011;18261;53.648;9.910;2023-05-10T01:05:20;9.98;;;4.10;;
31652;SDS011;18261;53.648;9.910;2023-05-10T01:07:46;10.00;;;4.57;;
31652;SDS011;18261;53.648;9.910;2023-05-10T01:10:13;11.30;;;4.50;;
31652;SDS011;18261;53.648;9.910;2023-05-10T01:12:41;10.55;;;4.13;;
31652;SDS011;18261;53.648;9.910;2023-05-10T01:15:08;13.05;;;4.35;;
31652;SDS011;18261;53.648;9.910;2023-05-10T01:17:36;11.25;;;3.97;;
31652;SDS011;18261;53.648;9.910;2023-05-10T01:20:03;7.18;;;4.20;;
31652;SDS011;18261;53.648;9.910;2023-05-10T01:27:27;11.23;;;4.50;;
31652;SDS011;18261;53.648;9.910;2023-05-10T01:30:05;10.63;;;4.43;;
31652;SDS011;18261;53.648;9.910;2023-05-10T01:32:40;12.48;;;4.63;;
31652;SDS011;18261;53.648;9.910;2023-05-10T01:37:37;14.35;;;4.32;;
31652;SDS011;18261;53.648;9.910;2023-05-10T01:42:40;10.20;;;3.72;;
31652;SDS011;18261;53.648;9.910;2023-05-10T01:45:14;11.05;;;5.00;;
31652;SDS011;18261;53.648;9.910;2023-05-10T01:47:44;10.73;;;4.38;;
31652;SDS011;18261;53.648;9.910;2023-05-10T01:50:16;10.25;;;4.50;;
31652;SDS011;18261;53.648;9.910;2023-05-10T01:52:44;12.43;;;4.30;;
31652;SDS011;18261;53.648;9.910;2023-05-10T01:55:14;14.07;;;4.35;;
31652;SDS011;18261;53.648;9.910;2023-05-10T01:57:42;11.10;;;4.78;;
31652;SDS011;18261;53.648;9.910;2023-05-10T02:00:09;15.30;;;4.72;;
31652;SDS011;18261;53.648;9.910;2023-05-10T02:02:40;12.05;;;4.18;;
31652;SDS011;18261;53.648;9.910;2023-05-10T02:05:07;19.67;;;4.60;;
31652;SDS011;18261;53.648;9.910;2023-05-10T02:07:34;9.60;;;4.35;;
31652;SDS011;18261;53.648;9.910;2023-05-10T02:10:01;12.30;;;4.53;;
31652;SDS011;18261;53.648;9.910;2023-05-10T02:12:28;14.68;;;4.75;;
31652;SDS011;18261;53.648;9.910;2023-05-10T02:14:55;10.05;;;4.50;;
31652;SDS011;18261;53.648;9.910;2023-05-10T02:17:22;13.23;;;4.60;;
31652;SDS011;18261;53.648;9.910;2023-05-10T02:19:48;9.95;;;4.32;;
31652;SDS011;18261;53.648;9.910;2023-05-10T02:22:15;12.20;;;4.60;;
31652;SDS011;18261;53.648;9.910;2023-05-10T02:24:42;8.55;;;4.75;;
31652;SDS011;18261;53.648;9.910;2023-05-10T02:27:09;9.98;;;4.63;;
31652;SDS011;18261;53.648;9.910;2023-05-10T02:29:35;14.43;;;4.38;;
31652;SDS011;18261;53.648;9.910;2023-05-10T02:32:02;16.02;;;4.22;;
31652;SDS011;18261;53.648;9.910;2023-05-10T02:34:28;11.13;;;4.72;;
31652;SDS011;18261;53.648;9.910;2023-05-10T02:36:55;10.27;;;5.13;;
31652;SDS011;18261;53.648;9.910;2023-05-10T02:39:21;9.77;;;4.30;;
31652;SDS011;18261;53.648;9.910;2023-05-10T02:41:48;8.80;;;4.70;;
31652;SDS011;18261;53.648;9.910;2023-05-10T02:44:15;14.05;;;5.07;;
31652;SDS011;18261;53.648;9.910;2023-05-10T02:46:41;15.02;;;4.80;;
31652;SDS011;18261;53.648;9.910;2023-05-10T02:49:08;10.70;;;5.43;;
31652;SDS011;18261;53.648;9.910;2023-05-10T02:51:34;12.88;;;5.38;;
31652;SDS011;18261;53.648;9.910;2023-05-10T02:54:04;14.07;;;5.20;;
31652;SDS011;18261;53.648;9.910;2023-05-10T02:56:33;12.15;;;4.82;;
31652;SDS011;18261;53.648;9.910;2023-05-10T02:59:00;22.70;;;5.15;;
31652;SDS011;18261;53.648;9.910;2023-05-10T03:01:25;9.52;;;4.53;;
31652;SDS011;18261;53.648;9.910;2023-05-10T03:03:51;10.00;;;4.50;;
31652;SDS011;18261;53.648;9.910;2023-05-10T03:06:18;17.15;;;4.88;;
31652;SDS011;18261;53.648;9.910;2023-05-10T03:08:44;10.23;;;4.60;;
31652;SDS011;18261;53.648;9.910;2023-05-10T03:13:44;18.52;;;6.05;;
31652;SDS011;18261;53.648;9.910;2023-05-10T03:16:13;11.77;;;5.00;;
31652;SDS011;18261;53.648;9.910;2023-05-10T03:18:44;9.40;;;4.82;;
31652;SDS011;18261;53.648;9.910;2023-05-10T03:21:13;10.48;;;5.28;;
31652;SDS011;18261;53.648;9.910;2023-05-10T03:23:44;15.23;;;5.15;;
31652;SDS011;18261;53.648;9.910;2023-05-10T03:26:17;13.88;;;4.70;;
31652;SDS011;18261;53.648;9.910;2023-05-10T03:28:43;15.93;;;5.00;;
31652;SDS011;18261;53.648;9.910;2023-05-10T03:31:10;15.40;;;4.90;;
31652;SDS011;18261;53.648;9.910;2023-05-10T03:33:45;9.45;;;4.13;;
31652;SDS011;18261;53.648;9.910;2023-05-10T03:36:11;7.88;;;4.43;;
31652;SDS011;18261;53.648;9.910;2023-05-10T03:38:37;10.75;;;4.63;;
31652;SDS011;18261;53.648;9.910;2023-05-10T03:41:03;14.45;;;4.85;;
31652;SDS011;18261;53.648;9.910;2023-05-10T03:43:29;14.88;;;5.53;;
31652;SDS011;18261;53.648;9.910;2023-05-10T03:45:55;10.27;;;4.32;;
31652;SDS011;18261;53.648;9.910;2023-05-10T03:48:21;14.07;;;4.40;;
31652;SDS011;18261;53.648;9.910;2023-05-10T03:50:46;10.93;;;4.88;;
31652;SDS011;18261;53.648;9.910;2023-05-10T03:53:14;14.32;;;5.07;;
31652;SDS011;18261;53.648;9.910;2023-05-10T03:55:40;8.38;;;5.07;;
31652;SDS011;18261;53.648;9.910;2023-05-10T03:58:06;11.20;;;5.03;;
31652;SDS011;18261;53.648;9.910;2023-05-10T04:00:32;13.25;;;4.85;;
31652;SDS011;18261;53.648;9.910;2023-05-10T04:02:58;10.68;;;4.85;;
31652;SDS011;18261;53.648;9.910;2023-05-10T04:05:24;16.13;;;5.82;;
31652;SDS011;18261;53.648;9.910;2023-05-10T04:07:50;19.60;;;5.18;;
31652;SDS011;18261;53.648;9.910;2023-05-10T04:10:16;16.27;;;4.70;;
31652;SDS011;18261;53.648;9.910;2023-05-10T04:12:42;11.82;;;4.63;;
31652;SDS011;18261;53.648;9.910;2023-05-10T04:15:08;15.27;;;5.45;;
31652;SDS011;18261;53.648;9.910;2023-05-10T04:17:34;11.27;;;5.28;;
31652;SDS011;18261;53.648;9.910;2023-05-10T04:20:00;11.10;;;5.15;;
31652;SDS011;18261;53.648;9.910;2023-05-10T04:22:26;11.45;;;4.80;;
31652;SDS011;18261;53.648;9.910;2023-05-10T04:24:54;11.43;;;5.07;;
31652;SDS011;18261;53.648;9.910;2023-05-10T04:27:19;10.55;;;5.25;;
31652;SDS011;18261;53.648;9.910;2023-05-10T04:29:45;11.50;;;5.60;;
31652;SDS011;18261;53.648;9.910;2023-05-10T04:32:11;11.88;;;5.00;;
31652;SDS011;18261;53.648;9.910;2023-05-10T04:34:37;17.92;;;5.75;;
31652;SDS011;18261;53.648;9.910;2023-05-10T04:37:04;11.90;;;5.30;;
31652;SDS011;18261;53.648;9.910;2023-05-10T04:39:30;14.85;;;4.90;;
31652;SDS011;18261;53.648;9.910;2023-05-10T04:41:57;13.35;;;4.97;;
31652;SDS011;18261;53.648;9.910;2023-05-10T04:44:23;8.80;;;4.93;;
31652;SDS011;18261;53.648;9.910;2023-05-10T04:46:49;17.73;;;4.93;;
31652;SDS011;18261;53.648;9.910;2023-05-10T04:49:15;20.25;;;4.75;;
31652;SDS011;18261;53.648;9.910;2023-05-10T04:51:41;11.77;;;5.07;;
31652;SDS011;18261;53.648;9.910;2023-05-10T04:54:07;8.32;;;5.20;;
31652;SDS011;18261;53.648;9.910;2023-05-10T04:56:33;12.65;;;4.95;;
31652;SDS011;18261;53.648;9.910;2023-05-10T04:58:59;15.57;;;5.57;;
31652;SDS011;18261;53.648;9.910;2023-05-10T05:01:25;9.32;;;4.93;;
31652;SDS011;18261;53.648;9.910;2023-05-10T05:03:51;12.57;;;4.85;;
31652;SDS011;18261;53.648;9.910;2023-05-10T05:06:17;8.98;;;5.85;;
31652;SDS011;18261;53.648;9.910;2023-05-10T05:08:43;9.93;;;5.00;;
31652;SDS011;18261;53.648;9.910;2023-05-10T05:11:09;12.05;;;4.93;;
31652;SDS011;18261;53.648;9.910;2023-05-10T05:13:35;12.27;;;5.50;;
31652;SDS011;18261;53.648;9.910;2023-05-10T05:16:02;9.95;;;5.35;;
31652;SDS011;18261;53.648;9.910;2023-05-10T05:18:28;10.80;;;4.65;;
31652;SDS011;18261;53.648;9.910;2023-05-10T05:20:54;16.20;;;5.95;;
31652;SDS011;18261;53.648;9.910;2023-05-10T05:23:20;16.00;;;5.53;;
31652;SDS011;18261;53.648;9.910;2023-05-10T05:25:49;12.90;;;5.18;;
31652;SDS011;18261;53.648;9.910;2023-05-10T05:28:15;12.88;;;5.53;;
31652;SDS011;18261;53.648;9.910;2023-05-10T05:30:41;9.18;;;5.20;;
31652;SDS011;18261;53.648;9.910;2023-05-10T05:33:07;11.88;;;5.65;;
31652;SDS011;18261;53.648;9.910;2023-05-10T05:35:33;11.10;;;4.70;;
31652;SDS011;18261;53.648;9.910;2023-05-10T05:37:59;7.63;;;5.05;;
31652;SDS011;18261;53.648;9.910;2023-05-10T05:40:26;21.25;;;6.22;;
31652;SDS011;18261;53.648;9.910;2023-05-10T05:42:52;9.63;;;4.85;;
31652;SDS011;18261;53.648;9.910;2023-05-10T05:45:18;10.35;;;5.55;;
31652;SDS011;18261;53.648;9.910;2023-05-10T05:47:44;8.25;;;4.53;;
31652;SDS011;18261;53.648;9.910;2023-05-10T05:50:10;11.50;;;5.43;;
31652;SDS011;18261;53.648;9.910;2023-05-10T05:52:36;14.93;;;5.20;;
31652;SDS011;18261;53.648;9.910;2023-05-10T05:55:02;14.35;;;5.35;;
31652;SDS011;18261;53.648;9.910;2023-05-10T05:57:28;9.18;;;4.68;;
31652;SDS011;18261;53.648;9.910;2023-05-10T05:59:54;14.65;;;5.43;;
31652;SDS011;18261;53.648;9.910;2023-05-10T06:02:20;19.70;;;5.13;;
31652;SDS011;18261;53.648;9.910;2023-05-10T06:04:46;13.88;;;5.18;;
31652;SDS011;18261;53.648;9.910;2023-05-10T06:07:12;14.90;;;4.82;;
31652;SDS011;18261;53.648;9.910;2023-05-10T06:09:38;20.70;;;6.03;;
31652;SDS011;18261;53.648;9.910;2023-05-10T06:12:04;12.80;;;4.90;;
31652;SDS011;18261;53.648;9.910;2023-05-10T06:14:30;13.52;;;5.00;;
31652;SDS011;18261;53.648;9.910;2023-05-10T06:16:56;11.68;;;5.38;;
31652;SDS011;18261;53.648;9.910;2023-05-10T06:19:24;14.13;;;5.20;;
31652;SDS011;18261;53.648;9.910;2023-05-10T06:21:51;12.70;;;5.03;;
31652;SDS011;18261;53.648;9.910;2023-05-10T06:24:17;20.40;;;5.22;;
31652;SDS011;18261;53.648;9.910;2023-05-10T06:26:43;20.25;;;5.72;;
31652;SDS011;18261;53.648;9.910;2023-05-10T06:29:09;18.88;;;5.80;;
31652;SDS011;18261;53.648;9.910;2023-05-10T06:31:35;13.18;;;5.68;;
31652;SDS011;18261;53.648;9.910;2023-05-10T06:34:01;14.02;;;5.20;;
31652;SDS011;18261;53.648;9.910;2023-05-10T06:36:27;12.00;;;5.18;;
31652;SDS011;18261;53.648;9.910;2023-05-10T06:38:53;8.55;;;4.40;;
31652;SDS011;18261;53.648;9.910;2023-05-10T06:41:19;11.70;;;5.15;;
31652;SDS011;18261;53.648;9.910;2023-05-10T06:43:46;10.23;;;4.72;;
31652;SDS011;18261;53.648;9.910;2023-05-10T06:46:11;14.00;;;5.00;;
31652;SDS011;18261;53.648;9.910;2023-05-10T06:48:37;18.85;;;5.18;;
31652;SDS011;18261;53.648;9.910;2023-05-10T06:51:03;11.20;;;5.30;;
31652;SDS011;18261;53.648;9.910;2023-05-10T06:53:29;12.50;;;5.90;;
31652;SDS011;18261;53.648;9.910;2023-05-10T06:55:55;15.80;;;5.55;;
31652;SDS011;18261;53.648;9.910;2023-05-10T06:58:21;9.18;;;5.60;;
31652;SDS011;18261;53.648;9.910;2023-05-10T07:00:47;11.18;;;5.15;;
31652;SDS011;18261;53.648;9.910;2023-05-10T07:03:13;14.25;;;5.07;;
31652;SDS011;18261;53.648;9.910;2023-05-10T07:05:40;9.35;;;5.10;;
31652;SDS011;18261;53.648;9.910;2023-05-10T07:08:06;13.27;;;4.88;;
31652;SDS011;18261;53.648;9.910;2023-05-10T07:10:32;14.15;;;5.35;;
31652;SDS011;18261;53.648;9.910;2023-05-10T07:12:58;13.68;;;5.35;;
31652;SDS011;18261;53.648;9.910;2023-05-10T07:15:26;13.30;;;5.43;;
31652;SDS011;18261;53.648;9.910;2023-05-10T07:17:52;13.80;;;5.30;;
31652;SDS011;18261;53.648;9.910;2023-05-10T07:20:18;12.70;;;5.30;;
31652;SDS011;18261;53.648;9.910;2023-05-10T07:22:44;11.70;;;5.35;;
31652;SDS011;18261;53.648;9.910;2023-05-10T07:25:10;13.32;;;5.38;;
31652;SDS011;18261;53.648;9.910;2023-05-10T07:27:36;26.85;;;6.32;;
31652;SDS011;18261;53.648;9.910;2023-05-10T07:30:02;16.05;;;5.15;;
31652;SDS011;18261;53.648;9.910;2023-05-10T07:32:28;10.65;;;5.38;;
31652;SDS011;18261;53.648;9.910;2023-05-10T07:34:54;14.35;;;5.00;;
31652;SDS011;18261;53.648;9.910;2023-05-10T07:37:20;14.23;;;5.90;;
31652;SDS011;18261;53.648;9.910;2023-05-10T07:39:46;13.25;;;5.57;;
31652;SDS011;18261;53.648;9.910;2023-05-10T07:42:12;13.77;;;5.28;;
31652;SDS011;18261;53.648;9.910;2023-05-10T07:44:38;12.85;;;5.07;;
31652;SDS011;18261;53.648;9.910;2023-05-10T07:47:04;9.90;;;5.70;;
31652;SDS011;18261;53.648;9.910;2023-05-10T07:49:30;20.38;;;5.60;;
31652;SDS011;18261;53.648;9.910;2023-05-10T07:51:56;17.20;;;5.38;;
31652;SDS011;18261;53.648;9.910;2023-05-10T07:54:22;13.70;;;5.93;;
31652;SDS011;18261;53.648;9.910;2023-05-10T07:56:48;16.70;;;5.63;;
31652;SDS011;18261;53.648;9.910;2023-05-10T07:59:17;13.02;;;5.05;;
31652;SDS011;18261;53.648;9.910;2023-05-10T08:01:43;11.13;;;5.65;;
31652;SDS011;18261;53.648;9.910;2023-05-10T08:04:09;19.77;;;6.03;;
31652;SDS011;18261;53.648;9.910;2023-05-10T08:06:36;11.18;;;5.60;;
31652;SDS011;18261;53.648;9.910;2023-05-10T08:09:02;10.48;;;5.68;;
31652;SDS011;18261;53.648;9.910;2023-05-10T08:11:28;20.25;;;5.60;;
31652;SDS011;18261;53.648;9.910;2023-05-10T08:13:54;12.93;;;5.20;;
31652;SDS011;18261;53.648;9.910;2023-05-10T08:16:20;11.52;;;4.82;;
31652;SDS011;18261;53.648;9.910;2023-05-10T08:18:46;11.52;;;5.38;;
31652;SDS011;18261;53.648;9.910;2023-05-10T08:21:14;11.88;;;5.53;;
31652;SDS011;18261;53.648;9.910;2023-05-10T08:23:40;9.57;;;4.93;;
31652;SDS011;18261;53.648;9.910;2023-05-10T08:26:06;17.90;;;6.07;;
31652;SDS011;18261;53.648;9.910;2023-05-10T08:28:32;12.70;;;6.63;;
31652;SDS011;18261;53.648;9.910;2023-05-10T08:30:58;15.65;;;5.95;;
31652;SDS011;18261;53.648;9.910;2023-05-10T08:33:24;16.95;;;5.75;;
31652;SDS011;18261;53.648;9.910;2023-05-10T08:35:50;12.95;;;5.18;;
31652;SDS011;18261;53.648;9.910;2023-05-10T08:38:17;23.45;;;5.68;;
31652;SDS011;18261;53.648;9.910;2023-05-10T08:40:43;11.25;;;5.28;;
31652;SDS011;18261;53.648;9.910;2023-05-10T08:43:10;10.18;;;5.05;;
31652;SDS011;18261;53.648;9.910;2023-05-10T08:45:37;19.27;;;5.95;;
31652;SDS011;18261;53.648;9.910;2023-05-10T08:48:04;9.55;;;4.88;;
31652;SDS011;18261;53.648;9.910;2023-05-10T08:50:31;16.67;;;5.72;;
31652;SDS011;18261;53.648;9.910;2023-05-10T08:52:57;10.73;;;5.30;;
31652;SDS011;18261;53.648;9.910;2023-05-10T08:55:24;15.48;;;5.40;;
31652;SDS011;18261;53.648;9.910;2023-05-10T08:57:50;13.30;;;5.68;;
31652;SDS011;18261;53.648;9.910;2023-05-10T09:00:17;16.92;;;4.90;;
31652;SDS011;18261;53.648;9.910;2023-05-10T09:02:43;16.30;;;6.15;;
31652;SDS011;18261;53.648;9.910;2023-05-10T09:05:10;13.48;;;5.55;;
31652;SDS011;18261;53.648;9.910;2023-05-10T09:07:36;14.02;;;4.95;;
31652;SDS011;18261;53.648;9.910;2023-05-10T09:10:02;14.85;;;5.50;;
31652;SDS011;18261;53.648;9.910;2023-05-10T09:12:29;12.18;;;5.78;;
31652;SDS011;18261;53.648;9.910;2023-05-10T09:14:55;13.70;;;5.13;;
31652;SDS011;18261;53.648;9.910;2023-05-10T09:17:23;20.15;;;6.38;;
31652;SDS011;18261;53.648;9.910;2023-05-10T09:19:56;9.80;;;5.32;;
31652;SDS011;18261;53.648;9.910;2023-05-10T09:22:23;11.07;;;5.47;;
31652;SDS011;18261;53.648;9.910;2023-05-10T09:25:02;12.93;;;5.50;;
31652;SDS011;18261;53.648;9.910;2023-05-10T09:27:28;13.10;;;5.60;;
31652;SDS011;18261;53.648;9.910;2023-05-10T09:29:54;11.32;;;5.57;;
31652;SDS011;18261;53.648;9.910;2023-05-10T09:32:20;9.95;;;5.45;;
31652;SDS011;18261;53.648;9.910;2023-05-10T09:34:46;11.00;;;6.38;;
31652;SDS011;18261;53.648;9.910;2023-05-10T09:37:16;15.13;;;5.97;;
31652;SDS011;18261;53.648;9.910;2023-05-10T09:39:42;14.38;;;6.28;;
31652;SDS011;18261;53.648;9.910;2023-05-10T09:42:08;11.35;;;5.65;;
31652;SDS011;18261;53.648;9.910;2023-05-10T09:44:35;18.52;;;6.55;;
31652;SDS011;18261;53.648;9.910;2023-05-10T09:47:01;18.65;;;5.95;;
31652;SDS011;18261;53.648;9.910;2023-05-10T09:49:27;12.55;;;6.43;;
31652;SDS011;18261;53.648;9.910;2023-05-10T09:52:03;12.77;;;7.18;;
31652;SDS011;18261;53.648;9.910;2023-05-10T09:54:30;15.30;;;6.80;;
31652;SDS011;18261;53.648;9.910;2023-05-10T09:56:56;18.85;;;7.10;;
31652;SDS011;18261;53.648;9.910;2023-05-10T09:59:24;15.30;;;6.45;;
31652;SDS011;18261;53.648;9.910;2023-05-10T10:01:51;15.50;;;7.47;;
31652;SDS011;18261;53.648;9.910;2023-05-10T10:04:17;13.10;;;6.57;;
31652;SDS011;18261;53.648;9.910;2023-05-10T10:06:46;14.00;;;6.47;;
31652;SDS011;18261;53.648;9.910;2023-05-10T10:09:12;15.43;;;7.45;;
31652;SDS011;18261;53.648;9.910;2023-05-10T10:11:39;17.42;;;7.30;;
31652;SDS011;18261;53.648;9.910;2023-05-10T10:14:06;14.32;;;7.63;;
31652;SDS011;18261;53.648;9.910;2023-05-10T10:16:32;12.95;;;7.03;;
31652;SDS011;18261;53.648;9.910;2023-05-10T10:18:58;15.93;;;8.30;;
31652;SDS011;18261;53.648;9.910;2023-05-10T10:21:24;14.40;;;6.95;;
31652;SDS011;18261;53.648;9.910;2023-05-10T10:23:50;19.05;;;8.02;;
31652;SDS011;18261;53.648;9.910;2023-05-10T10:26:17;19.80;;;9.27;;
31652;SDS011;18261;53.648;9.910;2023-05-10T10:29:00;17.73;;;9.57;;
31652;SDS011;18261;53.648;9.910;2023-05-10T10:31:39;14.68;;;7.88;;
31652;SDS011;18261;53.648;9.910;2023-05-10T10:34:07;21.08;;;8.88;;
31652;SDS011;18261;53.648;9.910;2023-05-10T10:36:42;15.02;;;9.35;;
31652;SDS011;18261;53.648;9.910;2023-05-10T10:39:09;12.20;;;8.38;;
31652;SDS011;18261;53.648;9.910;2023-05-10T10:41:36;17.95;;;9.38;;
31652;SDS011;18261;53.648;9.910;2023-05-10T10:49:37;15.95;;;9.20;;
31652;SDS011;18261;53.648;9.910;2023-05-10T10:52:13;19.67;;;9.70;;
31652;SDS011;18261;53.648;9.910;2023-05-10T10:57:18;32.53;;;11.93;;
31652;SDS011;18261;53.648;9.910;2023-05-10T10:59:44;21.17;;;10.07;;
31652;SDS011;18261;53.648;9.910;2023-05-10T11:04:56;19.20;;;9.90;;
31652;SDS011;18261;53.648;9.910;2023-05-10T11:07:21;22.27;;;10.52;;
31652;SDS011;18261;53.648;9.910;2023-05-10T11:09:48;23.80;;;11.32;;
31652;SDS011;18261;53.648;9.910;2023-05-10T11:12:14;25.23;;;10.32;;
31652;SDS011;18261;53.648;9.910;2023-05-10T11:14:40;36.88;;;10.63;;
31652;SDS011;18261;53.648;9.910;2023-05-10T11:17:26;15.07;;;10.27;;
31652;SDS011;18261;53.648;9.910;2023-05-10T11:20:11;18.38;;;10.75;;
31652;SDS011;18261;53.648;9.910;2023-05-10T11:23:14;20.77;;;9.85;;
31652;SDS011;18261;53.648;9.910;2023-05-10T11:25:32;21.52;;;10.80;;
31652;SDS011;18261;53.648;9.910;2023-05-10T11:27:58;21.67;;;11.07;;
31652;SDS011;18261;53.648;9.910;2023-05-10T11:30:28;21.75;;;11.35;;
31652;SDS011;18261;53.648;9.910;2023-05-10T11:32:54;22.15;;;9.88;;
31652;SDS011;18261;53.648;9.910;2023-05-10T11:35:20;21.80;;;10.40;;
31652;SDS011;18261;53.648;9.910;2023-05-10T11:37:47;20.90;;;11.63;;
31652;SDS011;18261;53.648;9.910;2023-05-10T11:40:13;19.50;;;11.00;;
31652;SDS011;18261;53.648;9.910;2023-05-10T11:42:39;19.65;;;12.35;;
31652;SDS011;18261;53.648;9.910;2023-05-10T11:45:06;22.38;;;10.90;;
31652;SDS011;18261;53.648;9.910;2023-05-10T11:47:32;19.85;;;11.35;;
31652;SDS011;18261;53.648;9.910;2023-05-10T11:50:00;20.15;;;11.68;;
31652;SDS011;18261;53.648;9.910;2023-05-10T11:52:26;19.50;;;11.05;;
31652;SDS011;18261;53.648;9.910;2023-05-10T11:54:52;20.27;;;11.77;;
31652;SDS011;18261;53.648;9.910;2023-05-10T11:57:19;25.48;;;11.23;;
31652;SDS011;18261;53.648;9.910;2023-05-10T11:59:45;23.60;;;12.48;;
31652;SDS011;18261;53.648;9.910;2023-05-10T12:02:14;23.88;;;12.40;;
31652;SDS011;18261;53.648;9.910;2023-05-10T12:04:40;21.85;;;12.43;;
31652;SDS011;18261;53.648;9.910;2023-05-10T12:07:07;18.60;;;10.93;;
31652;SDS011;18261;53.648;9.910;2023-05-10T12:09:33;18.00;;;11.40;;
31652;SDS011;18261;53.648;9.910;2023-05-10T12:11:59;20.52;;;11.52;;
31652;SDS011;18261;53.648;9.910;2023-05-10T12:14:25;16.60;;;11.32;;
31652;SDS011;18261;53.648;9.910;2023-05-10T12:16:51;19.73;;;11.10;;
31652;SDS011;18261;53.648;9.910;2023-05-10T12:19:18;19.58;;;10.73;;
31652;SDS011;18261;53.648;9.910;2023-05-10T12:21:45;16.20;;;12.10;;
31652;SDS011;18261;53.648;9.910;2023-05-10T12:24:11;18.15;;;10.68;;
31652;SDS011;18261;53.648;9.910;2023-05-10T12:26:38;17.50;;;10.43;;
31652;SDS011;18261;53.648;9.910;2023-05-10T12:29:14;18.27;;;11.10;;
31652;SDS011;18261;53.648;9.910;2023-05-10T12:34:34;20.05;;;11.75;;
31652;SDS011;18261;53.648;9.910;2023-05-10T12:37:03;13.75;;;8.82;;
31652;SDS011;18261;53.648;9.910;2023-05-10T12:39:42;13.68;;;9.30;;
31652;SDS011;18261;53.648;9.910;2023-05-10T12:42:08;18.35;;;10.40;;
31652;SDS011;18261;53.648;9.910;2023-05-10T12:44:34;25.27;;;11.60;;
31652;SDS011;18261;53.648;9.910;2023-05-10T12:47:00;15.20;;;9.95;;
31652;SDS011;18261;53.648;9.910;2023-05-10T12:49:26;13.68;;;10.15;;
31652;SDS011;18261;53.648;9.910;2023-05-10T12:51:52;16.35;;;9.68;;
31652;SDS011;18261;53.648;9.910;2023-05-10T12:54:18;16.08;;;10.88;;
31652;SDS011;18261;53.648;9.910;2023-05-10T12:56:44;16.10;;;9.65;;
31652;SDS011;18261;53.648;9.910;2023-05-10T12:59:10;15.88;;;9.07;;
31652;SDS011;18261;53.648;9.910;2023-05-10T13:01:36;14.57;;;9.73;;
31652;SDS011;18261;53.648;9.910;2023-05-10T13:04:02;12.43;;;8.95;;
31652;SDS011;18261;53.648;9.910;2023-05-10T13:06:28;17.45;;;8.25;;
31652;SDS011;18261;53.648;9.910;2023-05-10T13:08:54;11.73;;;6.65;;
31652;SDS011;18261;53.648;9.910;2023-05-10T13:11:20;10.23;;;7.00;;
31652;SDS011;18261;53.648;9.910;2023-05-10T13:13:46;15.55;;;9.65;;
31652;SDS011;18261;53.648;9.910;2023-05-10T13:16:12;14.65;;;7.97;;
31652;SDS011;18261;53.648;9.910;2023-05-10T13:18:38;13.00;;;7.55;;
31652;SDS011;18261;53.648;9.910;2023-05-10T13:21:04;9.00;;;6.82;;
31652;SDS011;18261;53.648;9.910;2023-05-10T13:23:30;10.52;;;7.28;;
31652;SDS011;18261;53.648;9.910;2023-05-10T13:25:56;11.00;;;6.35;;
31652;SDS011;18261;53.648;9.910;2023-05-10T13:28:22;9.20;;;6.38;;
31652;SDS011;18261;53.648;9.910;2023-05-10T13:30:48;13.55;;;6.55;;
31652;SDS011;18261;53.648;9.910;2023-05-10T13:33:14;8.65;;;6.03;;
31652;SDS011;18261;53.648;9.910;2023-05-10T13:35:40;7.55;;;5.10;;
31652;SDS011;18261;53.648;9.910;2023-05-10T13:38:06;10.35;;;6.70;;
31652;SDS011;18261;53.648;9.910;2023-05-10T13:40:32;11.15;;;6.25;;
31652;SDS011;18261;53.648;9.910;2023-05-10T13:42:59;11.57;;;6.30;;
31652;SDS011;18261;53.648;9.910;2023-05-10T13:45:25;12.65;;;6.55;;
31652;SDS011;18261;53.648;9.910;2023-05-10T13:47:51;12.60;;;6.65;;
31652;SDS011;18261;53.648;9.910;2023-05-10T13:50:17;12.57;;;7.05;;
31652;SDS011;18261;53.648;9.910;2023-05-10T13:52:43;10.73;;;6.97;;
31652;SDS011;18261;53.648;9.910;2023-05-10T13:55:09;9.77;;;6.20;;
31652;SDS011;18261;53.648;9.910;2023-05-10T13:57:37;12.85;;;8.13;;
31652;SDS011;18261;53.648;9.910;2023-05-10T14:00:03;13.45;;;9.05;;
31652;SDS011;18261;53.648;9.910;2023-05-10T14:02:29;10.27;;;7.57;;
31652;SDS011;18261;53.648;9.910;2023-05-10T14:04:55;9.93;;;7.93;;
31652;SDS011;18261;53.648;9.910;2023-05-10T14:07:21;12.35;;;8.77;;
31652;SDS011;18261;53.648;9.910;2023-05-10T14:09:47;16.30;;;7.72;;
31652;SDS011;18261;53.648;9.910;2023-05-10T14:12:14;11.70;;;7.50;;
31652;SDS011;18261;53.648;9.910;2023-05-10T14:14:40;11.25;;;7.00;;
31652;SDS011;18261;53.648;9.910;2023-05-10T14:17:06;11.30;;;7.75;;
31652;SDS011;18261;53.648;9.910;2023-05-10T14:19:32;12.60;;;7.30;;
31652;SDS011;18261;53.648;9.910;2023-05-10T14:21:59;9.05;;;6.78;;
31652;SDS011;18261;53.648;9.910;2023-05-10T14:24:25;9.95;;;6.70;;
31652;SDS011;18261;53.648;9.910;2023-05-10T14:26:51;12.48;;;7.38;;
31652;SDS011;18261;53.648;9.910;2023-05-10T14:29:19;9.25;;;7.20;;
31652;SDS011;18261;53.648;9.910;2023-05-10T14:31:45;15.23;;;8.15;;
31652;SDS011;18261;53.648;9.910;2023-05-10T14:34:11;11.68;;;7.72;;
31652;SDS011;18261;53.648;9.910;2023-05-10T14:36:37;12.45;;;7.40;;
31652;SDS011;18261;53.648;9.910;2023-05-10T14:39:03;13.80;;;8.02;;
31652;SDS011;18261;53.648;9.910;2023-05-10T14:41:29;9.68;;;6.93;;
31652;SDS011;18261;53.648;9.910;2023-05-10T14:43:55;9.32;;;7.47;;
31652;SDS011;18261;53.648;9.910;2023-05-10T14:46:22;10.70;;;7.82;;
31652;SDS011;18261;53.648;9.910;2023-05-10T14:48:47;13.50;;;8.30;;
31652;SDS011;18261;53.648;9.910;2023-05-10T14:51:13;9.63;;;7.55;;
31652;SDS011;18261;53.648;9.910;2023-05-10T14:53:39;12.10;;;8.95;;
31652;SDS011;18261;53.648;9.910;2023-05-10T14:56:06;17.67;;;11.13;;
31652;SDS011;18261;53.648;9.910;2023-05-10T14:58:32;12.55;;;8.70;;
31652;SDS011;18261;53.648;9.910;2023-05-10T15:00:58;18.17;;;8.40;;